Time;durP1;ratioP1;P1;durP2;ratioP2;P2;SDS_P1;SDS_P2;PMS_P1;PMS_P2;Temp;Humidity;BMP_temperature;BMP_pressure;BME280_temperature;BME280_humidity;BME280_pressure;Samples;Min_cycle;Max_cycle;Signal;HPM_P1;HPM_P2
2022/11/11 00:02:13;;;;;;;4.13;3.73;;;7.60;99.90;;;;;;5100091;28;21016;-91
2022/11/11 00:04:44;;;;;;;10.07;4.57;;;7.50;99.90;;;;;;5101080;28;20195;-90
2022/11/11 00:07:16;;;;;;;6.90;4.33;;;7.40;99.90;;;;;;5109810;28;20257;-91
2022/11/11 00:09:51;;;;;;;11.00;4.17;;;7.40;99.90;;;;;;5117669;28;20206;-91
2022/11/11 00:12:22;;;;;;;7.07;4.13;;;7.30;99.90;;;;;;5099913;28;20292;-89
2022/11/11 00:14:56;;;;;;;6.60;3.83;;;7.20;99.90;;;;;;5099001;28;20225;-89
2022/11/11 00:26:08;;;;;;;7.90;4.10;;;7.10;99.90;;;;;;5054634;28;20250;-88
2022/11/11 00:29:00;;;;;;;4.77;3.77;;;7.00;99.90;;;;;;5055297;28;20211;-87
2022/11/11 00:31:31;;;;;;;5.20;3.53;;;7.00;99.90;;;;;;5091208;28;20206;-90
2022/11/11 00:34:03;;;;;;;5.17;3.57;;;6.90;99.90;;;;;;5108348;28;20207;-89
2022/11/11 00:36:34;;;;;;;5.93;3.77;;;6.80;99.90;;;;;;4728488;28;9999942;-90
2022/11/11 00:39:05;;;;;;;6.53;4.10;;;6.80;99.90;;;;;;5097108;28;20743;-89
2022/11/11 00:41:39;;;;;;;6.90;3.43;;;6.80;99.90;;;;;;5108650;28;20206;-90
2022/11/11 00:44:11;;;;;;;5.37;3.57;;;6.80;99.90;;;;;;5109567;28;20233;-89
2022/11/11 00:52:27;;;;;;;5.20;4.13;;;6.80;99.90;;;;;;5045028;28;20214;-90
2022/11/11 00:54:58;;;;;;;4.87;3.60;;;6.80;99.90;;;;;;5110146;28;20216;-89
2022/11/11 00:57:32;;;;;;;5.27;3.70;;;6.80;99.90;;;;;;5096276;28;20218;-89
2022/11/11 01:00:04;;;;;;;9.97;4.33;;;6.70;99.90;;;;;;5103182;28;20277;-89
2022/11/11 01:02:36;;;;;;;9.47;7.17;;;6.70;99.90;;;;;;5100041;28;20605;-88
2022/11/11 01:05:08;;;;;;;11.53;7.03;;;6.60;99.90;;;;;;5110137;28;20207;-89
2022/11/11 01:07:40;;;;;;;10.20;6.70;;;6.50;99.90;;;;;;5112387;28;20202;-90
2022/11/11 01:10:13;;;;;;;8.30;6.30;;;6.50;99.90;;;;;;5095118;28;20206;-90
2022/11/11 01:13:14;;;;;;;6.07;5.03;;;6.50;99.90;;;;;;5100316;28;20678;-89
2022/11/11 01:15:46;;;;;;;6.13;4.37;;;6.40;99.90;;;;;;5111312;28;20218;-89
2022/11/11 01:18:20;;;;;;;6.23;4.63;;;6.40;99.90;;;;;;5095027;28;20227;-92
2022/11/11 01:21:01;;;;;;;5.40;4.40;;;6.40;99.90;;;;;;5102779;28;20197;-89
2022/11/11 01:23:36;;;;;;;5.93;3.60;;;6.40;99.90;;;;;;5095269;28;20210;-89
2022/11/11 01:26:10;;;;;;;8.60;3.90;;;6.40;99.90;;;;;;5104502;27;20210;-88
2022/11/11 01:28:45;;;;;;;5.17;4.23;;;6.30;99.90;;;;;;5108576;27;20233;-89
2022/11/11 01:31:17;;;;;;;5.30;3.93;;;6.30;99.90;;;;;;5108486;27;20259;-89
2022/11/11 01:33:48;;;;;;;5.13;3.80;;;6.30;99.90;;;;;;5113119;28;20768;-88
2022/11/11 01:36:22;;;;;;;7.67;3.63;;;6.20;99.90;;;;;;5104595;28;20210;-89
2022/11/11 01:38:54;;;;;;;5.13;3.57;;;6.20;99.90;;;;;;5100273;28;20231;-88
2022/11/11 01:41:35;;;;;;;6.20;4.30;;;6.20;99.90;;;;;;5115985;28;20271;-86
2022/11/11 01:44:35;;;;;;;6.33;4.03;;;6.20;99.90;;;;;;5094102;28;20286;-88
2022/11/11 01:47:08;;;;;;;6.17;4.60;;;6.30;99.90;;;;;;5094960;28;20242;-88
2022/11/11 01:49:44;;;;;;;5.53;4.33;;;6.20;99.90;;;;;;5108437;28;20199;-87
2022/11/11 01:52:19;;;;;;;5.43;4.07;;;6.20;99.90;;;;;;5097363;28;20213;-88
2022/11/11 01:54:54;;;;;;;13.40;4.50;;;6.20;99.90;;;;;;5109613;28;20198;-88
2022/11/11 01:57:32;;;;;;;8.63;4.50;;;6.20;99.90;;;;;;5111542;28;20275;-87
2022/11/11 02:00:09;;;;;;;5.37;3.93;;;6.20;99.90;;;;;;5101872;28;20245;-87
2022/11/11 02:02:42;;;;;;;5.87;4.60;;;6.10;99.90;;;;;;5105741;28;20202;-88
2022/11/11 02:08:09;;;;;;;6.53;4.10;;;6.10;99.90;;;;;;5129682;28;20214;-88
2022/11/11 02:10:45;;;;;;;7.43;4.23;;;6.00;99.90;;;;;;5108398;28;20213;-87
2022/11/11 02:16:08;;;;;;;20.87;11.70;;;5.90;99.90;;;;;;5107684;28;20577;-88
2022/11/11 02:18:40;;;;;;;6.20;4.67;;;5.90;99.90;;;;;;5108429;28;20197;-87
2022/11/11 02:21:18;;;;;;;5.77;4.40;;;5.90;99.90;;;;;;5105865;28;20229;-87
2022/11/11 02:24:01;;;;;;;7.53;4.10;;;5.80;99.90;;;;;;5113528;28;20206;-87
2022/11/11 02:26:36;;;;;;;7.27;4.30;;;5.80;99.90;;;;;;5097927;28;20275;-88
2022/11/11 02:29:12;;;;;;;6.53;4.27;;;5.80;99.90;;;;;;5114102;28;20293;-88
2022/11/11 02:31:43;;;;;;;4.80;3.73;;;5.70;99.90;;;;;;5112721;28;20208;-87
2022/11/11 02:34:14;;;;;;;9.37;5.00;;;5.70;99.90;;;;;;5112120;28;20221;-87
2022/11/11 02:36:47;;;;;;;8.87;4.40;;;5.60;99.90;;;;;;5114754;28;20571;-89
2022/11/11 02:39:21;;;;;;;5.27;4.10;;;5.60;99.90;;;;;;5095418;28;20222;-88
2022/11/11 02:42:15;;;;;;;7.10;4.67;;;5.60;99.90;;;;;;5094837;28;20487;-89
2022/11/11 02:44:47;;;;;;;7.13;4.53;;;5.60;99.90;;;;;;5093374;28;20345;-89
2022/11/11 02:47:19;;;;;;;5.33;3.93;;;5.60;99.90;;;;;;5093936;28;20206;-89
2022/11/11 02:49:50;;;;;;;4.67;4.10;;;5.60;99.90;;;;;;5093338;28;20213;-86
2022/11/11 02:52:22;;;;;;;6.37;4.70;;;5.50;99.90;;;;;;5091957;28;20221;-88
2022/11/11 02:54:56;;;;;;;5.40;3.90;;;5.50;99.90;;;;;;5092593;28;20210;-89
2022/11/11 02:57:28;;;;;;;6.83;4.83;;;5.40;99.90;;;;;;5095334;28;20229;-89
2022/11/11 03:00:01;;;;;;;6.00;5.00;;;5.40;99.90;;;;;;5075197;28;20230;-89
2022/11/11 03:02:34;;;;;;;6.83;4.50;;;5.40;99.90;;;;;;5113733;28;20288;-89
2022/11/11 03:05:06;;;;;;;6.40;4.63;;;5.30;99.90;;;;;;5116421;28;20210;-89
2022/11/11 03:07:37;;;;;;;5.47;4.40;;;5.30;99.90;;;;;;5120090;28;20238;-89
2022/11/11 03:10:11;;;;;;;6.63;4.37;;;5.20;99.90;;;;;;5119134;28;20210;-89
2022/11/11 03:12:43;;;;;;;6.97;4.80;;;5.20;99.90;;;;;;5117705;28;20296;-88
2022/11/11 03:15:15;;;;;;;7.50;5.50;;;5.10;99.90;;;;;;5100699;28;20576;-88
2022/11/11 03:17:45;;;;;;;7.57;4.80;;;5.10;99.90;;;;;;5096852;28;20250;-89
2022/11/11 03:23:06;;;;;;;11.63;6.43;;;5.00;99.90;;;;;;5096543;28;20230;-88
2022/11/11 03:25:43;;;;;;;8.73;6.67;;;4.90;99.90;;;;;;5097696;28;20238;-87
2022/11/11 03:28:18;;;;;;;6.77;6.07;;;4.80;99.90;;;;;;5097214;28;20289;-88
2022/11/11 03:30:50;;;;;;;8.63;6.67;;;4.80;99.90;;;;;;5097721;28;20203;-89
2022/11/11 03:33:24;;;;;;;7.90;6.00;;;4.70;99.90;;;;;;5098839;28;20275;-89
2022/11/11 03:35:56;;;;;;;7.70;6.67;;;4.60;99.90;;;;;;5099761;28;20233;-89
2022/11/11 03:38:27;;;;;;;8.13;6.33;;;4.60;99.90;;;;;;5110370;28;20218;-89
2022/11/11 03:41:01;;;;;;;8.50;6.50;;;4.50;99.90;;;;;;5103173;28;20236;-88
2022/11/11 03:43:33;;;;;;;11.67;6.13;;;4.50;99.90;;;;;;5102777;28;20893;-88
2022/11/11 03:46:06;;;;;;;9.50;5.37;;;4.50;99.90;;;;;;5111084;28;20202;-90
2022/11/11 03:48:38;;;;;;;7.33;4.50;;;4.40;99.90;;;;;;5099506;28;20201;-88
2022/11/11 03:51:09;;;;;;;4.87;3.47;;;4.40;99.90;;;;;;5116651;28;20292;-89
2022/11/11 03:53:40;;;;;;;5.73;3.60;;;4.40;99.90;;;;;;5107876;28;20240;-90
2022/11/11 03:56:13;;;;;;;4.43;2.83;;;4.40;99.90;;;;;;5098883;28;20249;-89
2022/11/11 03:58:44;;;;;;;4.63;3.00;;;4.40;99.90;;;;;;5097853;28;20246;-89
2022/11/11 04:12:28;;;;;;;3.57;2.63;;;4.20;99.90;;;;;;5115291;28;20233;-88
2022/11/11 04:17:48;;;;;;;2.83;2.10;;;4.10;99.90;;;;;;5130366;28;20209;-88
2022/11/11 04:23:07;;;;;;;3.67;2.60;;;4.10;99.90;;;;;;5131265;28;20194;-90
2022/11/11 04:25:49;;;;;;;3.70;1.90;;;4.10;99.90;;;;;;5111610;28;20219;-89
2022/11/11 04:31:10;;;;;;;4.10;2.10;;;3.90;99.90;;;;;;5093760;28;20207;-90
2022/11/11 04:33:40;;;;;;;2.07;1.73;;;3.90;99.90;;;;;;5093380;28;20234;-88
2022/11/11 04:36:11;;;;;;;3.10;2.10;;;3.80;99.90;;;;;;5100278;28;20266;-88
2022/11/11 04:41:30;;;;;;;4.23;2.50;;;3.60;99.90;;;;;;5103630;28;20321;-90
2022/11/11 04:47:13;;;;;;;3.33;2.17;;;3.40;99.90;;;;;;5116859;28;20685;-89
2022/11/11 04:49:44;;;;;;;4.30;2.47;;;3.40;99.90;;;;;;5106390;28;20290;-88
2022/11/11 04:52:27;;;;;;;3.43;2.50;;;3.30;99.90;;;;;;5092564;28;20230;-88
2022/11/11 04:57:52;;;;;;;3.08;2.20;;;3.20;99.90;;;;;;4975863;28;2307524;-88
2022/11/11 05:00:26;;;;;;;4.13;2.53;;;3.10;99.90;;;;;;5114514;28;20238;-89
2022/11/11 05:03:17;;;;;;;4.00;2.30;;;3.00;99.90;;;;;;5114001;28;20209;-88
2022/11/11 05:08:57;;;;;;;4.00;2.70;;;2.90;99.90;;;;;;5052255;28;20287;-88
2022/11/11 05:11:30;;;;;;;3.00;2.70;;;2.90;99.90;;;;;;5051533;28;20273;-89
2022/11/11 05:22:36;;;;;;;3.67;2.57;;;2.60;99.90;;;;;;5094120;28;20344;-88
2022/11/11 05:25:25;;;;;;;3.50;2.97;;;2.60;99.90;;;;;;5104641;28;20607;-87
2022/11/11 05:27:58;;;;;;;3.73;2.40;;;2.60;99.90;;;;;;5095608;28;20239;-89
2022/11/11 05:30:30;;;;;;;3.73;2.67;;;2.60;99.90;;;;;;5102133;28;20198;-87
2022/11/11 05:33:05;;;;;;;5.87;3.40;;;2.60;99.90;;;;;;5101837;28;20242;-87
2022/11/11 05:35:37;;;;;;;4.97;3.30;;;2.50;99.90;;;;;;5095095;28;20206;-88
2022/11/11 05:38:23;;;;;;;4.50;3.10;;;2.50;99.90;;;;;;5111443;28;20289;-89
2022/11/11 05:40:58;;;;;;;3.53;3.00;;;2.50;99.90;;;;;;5114850;28;20238;-88
2022/11/11 05:43:29;;;;;;;4.23;2.97;;;2.50;99.90;;;;;;5096681;28;20256;-88
2022/11/11 05:46:00;;;;;;;4.63;2.97;;;2.40;99.90;;;;;;5105321;28;20219;-87
2022/11/11 05:48:33;;;;;;;4.83;3.13;;;2.40;99.90;;;;;;5094681;28;20199;-87
2022/11/11 05:51:05;;;;;;;3.90;3.00;;;2.40;99.90;;;;;;5094842;28;20210;-88
2022/11/11 05:53:37;;;;;;;4.13;3.27;;;2.40;99.90;;;;;;5093587;28;20232;-87
2022/11/11 05:56:08;;;;;;;6.93;3.77;;;2.30;99.90;;;;;;5094951;28;20263;-88
2022/11/11 05:58:41;;;;;;;4.97;3.77;;;2.30;99.90;;;;;;5107706;28;20294;-88
2022/11/11 06:01:19;;;;;;;5.40;3.93;;;2.30;99.90;;;;;;5094851;28;20596;-88
2022/11/11 06:03:52;;;;;;;4.47;3.30;;;2.30;99.90;;;;;;5095718;28;20720;-88
2022/11/11 06:06:23;;;;;;;4.20;3.33;;;2.30;99.90;;;;;;5097914;28;20272;-87
2022/11/11 06:08:55;;;;;;;3.97;2.90;;;2.30;99.90;;;;;;5114785;28;20206;-87
2022/11/11 06:11:28;;;;;;;3.07;2.43;;;2.30;99.90;;;;;;5114448;28;20241;-86
2022/11/11 06:14:02;;;;;;;2.30;2.00;;;2.30;99.90;;;;;;5114388;28;20284;-86
2022/11/11 06:16:33;;;;;;;5.07;2.30;;;2.30;99.90;;;;;;5084583;28;20207;-87
2022/11/11 06:19:09;;;;;;;3.70;2.40;;;2.30;99.90;;;;;;5097153;28;20236;-87
2022/11/11 06:24:30;;;;;;;3.03;1.77;;;2.30;99.90;;;;;;5091000;28;20211;-88
2022/11/11 06:27:02;;;;;;;2.70;2.00;;;2.20;99.90;;;;;;5100960;28;20697;-87
2022/11/11 06:29:33;;;;;;;2.67;1.80;;;2.20;99.90;;;;;;5094573;28;20222;-87
2022/11/11 06:32:05;;;;;;;2.43;1.83;;;2.30;99.90;;;;;;5114894;28;20190;-88
2022/11/11 06:34:38;;;;;;;2.23;1.63;;;2.30;99.90;;;;;;5119612;28;20203;-88
2022/11/11 06:37:09;;;;;;;2.47;1.93;;;2.30;99.90;;;;;;5116786;28;20206;-86
2022/11/11 06:39:40;;;;;;;2.10;1.60;;;2.30;99.90;;;;;;5099297;28;20263;-87
2022/11/11 06:42:11;;;;;;;2.80;1.70;;;2.30;99.90;;;;;;5103536;28;20258;-86
2022/11/11 06:44:42;;;;;;;2.07;1.70;;;2.30;99.90;;;;;;5112826;28;20233;-87
2022/11/11 06:47:14;;;;;;;2.53;1.70;;;2.30;99.90;;;;;;5109901;28;20551;-87
2022/11/11 06:49:48;;;;;;;2.37;1.70;;;2.30;99.90;;;;;;5110659;28;20203;-87
2022/11/11 06:52:19;;;;;;;2.20;1.70;;;2.30;99.90;;;;;;5092757;28;20221;-87
2022/11/11 06:54:50;;;;;;;2.13;1.60;;;2.20;99.90;;;;;;5114881;28;20231;-87
2022/11/11 06:57:24;;;;;;;3.37;1.60;;;2.20;99.90;;;;;;5103785;28;20202;-87
2022/11/11 06:59:55;;;;;;;2.83;2.10;;;2.10;99.90;;;;;;5095502;28;20294;-86
2022/11/11 07:02:26;;;;;;;2.07;1.40;;;2.10;99.90;;;;;;5102365;28;20638;-87
2022/11/11 07:05:02;;;;;;;1.80;1.50;;;2.00;99.90;;;;;;5099594;28;20202;-87
2022/11/11 07:07:34;;;;;;;2.67;1.43;;;2.00;99.90;;;;;;5094519;28;20195;-89
2022/11/11 07:10:09;;;;;;;2.43;1.87;;;1.90;99.90;;;;;;5107640;28;20288;-88
2022/11/11 07:12:43;;;;;;;2.43;1.30;;;1.90;99.90;;;;;;5099608;28;20316;-89
2022/11/11 07:15:14;;;;;;;1.60;1.33;;;1.90;99.90;;;;;;5083696;28;20690;-88
2022/11/11 07:17:46;;;;;;;2.03;1.70;;;1.80;99.90;;;;;;5107002;28;20213;-87
2022/11/11 07:20:21;;;;;;;2.30;1.63;;;1.80;99.90;;;;;;5100180;28;20685;-87
2022/11/11 07:22:52;;;;;;;3.47;2.30;;;1.70;99.90;;;;;;5099295;28;20232;-87
2022/11/11 07:25:24;;;;;;;3.43;1.90;;;1.70;99.90;;;;;;5092854;28;20203;-88
2022/11/11 07:27:55;;;;;;;4.40;1.50;;;1.70;99.90;;;;;;5109090;28;20202;-85
2022/11/11 07:30:28;;;;;;;2.67;1.77;;;1.70;99.90;;;;;;5108401;28;20222;-87
2022/11/11 07:33:00;;;;;;;2.17;1.77;;;1.70;99.90;;;;;;5092136;28;20203;-86
2022/11/11 07:35:34;;;;;;;2.57;1.83;;;1.60;99.90;;;;;;5092673;28;20214;-87
2022/11/11 07:38:05;;;;;;;3.67;2.00;;;1.60;99.90;;;;;;5093099;28;20298;-87
2022/11/11 07:40:38;;;;;;;4.13;2.20;;;1.60;99.90;;;;;;5093274;28;20278;-88
2022/11/11 07:43:09;;;;;;;2.37;2.00;;;1.60;99.90;;;;;;5074597;28;20239;-88
2022/11/11 07:45:40;;;;;;;2.67;1.93;;;1.60;99.90;;;;;;5105664;28;20285;-88
2022/11/11 07:48:11;;;;;;;3.20;2.07;;;1.60;99.90;;;;;;5106725;28;20290;-88
2022/11/11 07:50:45;;;;;;;2.23;1.80;;;1.60;99.90;;;;;;5095273;28;20725;-87
2022/11/11 07:53:17;;;;;;;2.73;1.93;;;1.50;99.90;;;;;;5096952;28;20219;-87
2022/11/11 07:55:48;;;;;;;1.90;1.70;;;1.50;99.90;;;;;;5109849;28;20234;-88
2022/11/11 07:58:20;;;;;;;2.53;2.33;;;1.40;99.90;;;;;;5100733;28;20206;-87
2022/11/11 08:00:51;;;;;;;2.13;1.93;;;1.40;99.90;;;;;;5111394;28;20195;-88
2022/11/11 08:03:22;;;;;;;3.67;2.10;;;1.40;99.90;;;;;;5095537;28;20226;-88
2022/11/11 08:05:57;;;;;;;2.27;1.90;;;1.40;99.90;;;;;;5097249;28;20211;-88
2022/11/11 08:08:28;;;;;;;2.73;2.00;;;1.40;99.90;;;;;;5102751;27;20674;-88
2022/11/11 08:10:59;;;;;;;2.83;2.17;;;1.40;99.90;;;;;;5096386;28;20643;-88
2022/11/11 08:13:42;;;;;;;2.10;1.90;;;1.40;99.90;;;;;;5095564;28;20326;-88
2022/11/11 08:16:15;;;;;;;2.67;2.13;;;1.30;99.90;;;;;;5107243;28;20289;-87
2022/11/11 08:18:48;;;;;;;2.63;1.80;;;1.30;99.90;;;;;;5113490;28;20289;-89
2022/11/11 08:21:21;;;;;;;3.07;2.00;;;1.30;99.90;;;;;;5096274;28;20330;-87
2022/11/11 08:23:53;;;;;;;1.70;1.53;;;1.30;99.90;;;;;;5114151;28;20230;-87
2022/11/11 08:26:44;;;;;;;2.73;1.87;;;1.30;99.90;;;;;;5098490;28;20197;-87
2022/11/11 08:29:15;;;;;;;1.90;1.60;;;1.20;99.90;;;;;;5102295;28;20233;-89
2022/11/11 08:31:46;;;;;;;2.53;1.90;;;1.20;99.90;;;;;;5111407;28;20202;-88
2022/11/11 08:34:18;;;;;;;3.03;2.00;;;1.20;99.90;;;;;;5109283;28;20678;-88
2022/11/11 08:36:51;;;;;;;2.57;2.03;;;1.20;99.90;;;;;;5096785;28;20218;-88
2022/11/11 08:39:23;;;;;;;4.90;2.00;;;1.20;99.90;;;;;;5110552;28;20195;-88
2022/11/11 08:41:54;;;;;;;2.40;1.83;;;1.20;99.90;;;;;;5113223;28;20325;-89
2022/11/11 08:44:25;;;;;;;1.70;1.57;;;1.10;99.90;;;;;;5126953;28;20194;-89
2022/11/11 08:46:57;;;;;;;2.03;1.60;;;1.10;99.90;;;;;;5114353;28;20210;-89
2022/11/11 08:49:29;;;;;;;2.70;1.80;;;1.10;99.90;;;;;;5127516;28;20202;-88
2022/11/11 08:52:03;;;;;;;2.23;1.60;;;1.10;99.90;;;;;;5111252;28;20203;-87
2022/11/11 08:54:35;;;;;;;2.70;2.10;;;1.10;99.90;;;;;;5079675;28;20261;-89
2022/11/11 08:57:06;;;;;;;2.43;2.10;;;1.10;99.90;;;;;;5099865;28;20226;-88
2022/11/11 08:59:37;;;;;;;2.10;1.87;;;1.10;99.90;;;;;;5116424;28;20281;-88
2022/11/11 09:02:11;;;;;;;2.27;1.83;;;1.20;99.90;;;;;;5113135;28;20313;-87
2022/11/11 09:04:44;;;;;;;2.13;1.83;;;1.20;99.90;;;;;;5106512;28;20312;-88
2022/11/11 09:07:24;;;;;;;3.03;2.10;;;1.20;99.90;;;;;;5115944;28;20715;-87
2022/11/11 09:09:56;;;;;;;3.83;1.90;;;1.30;99.90;;;;;;5114687;28;20194;-89
2022/11/11 09:12:28;;;;;;;2.77;2.00;;;1.30;99.90;;;;;;5095624;28;20234;-87
2022/11/11 09:15:00;;;;;;;3.77;2.20;;;1.40;99.90;;;;;;5095672;28;20225;-88
2022/11/11 09:17:31;;;;;;;2.57;1.97;;;1.40;99.90;;;;;;5095063;28;20270;-87
2022/11/11 09:20:02;;;;;;;3.47;1.93;;;1.50;99.90;;;;;;5094796;28;20310;-88
2022/11/11 09:22:44;;;;;;;2.73;1.90;;;1.50;99.90;;;;;;5094336;28;20565;-88
2022/11/11 09:25:16;;;;;;;3.73;2.03;;;1.50;99.90;;;;;;5078305;28;20207;-88
2022/11/11 09:27:56;;;;;;;2.40;1.90;;;1.60;99.90;;;;;;5095890;28;20237;-86
2022/11/11 09:30:28;;;;;;;2.77;2.30;;;1.70;99.90;;;;;;5100791;28;20756;-88
2022/11/11 09:33:03;;;;;;;3.27;2.07;;;1.80;99.90;;;;;;5110177;28;20293;-87
2022/11/11 09:35:34;;;;;;;2.67;1.93;;;1.80;99.90;;;;;;5105231;28;20230;-87
2022/11/11 09:38:08;;;;;;;4.80;1.90;;;1.80;99.90;;;;;;5114253;28;20705;-87
2022/11/11 09:40:52;;;;;;;3.00;2.20;;;1.90;99.90;;;;;;5120778;28;20207;-88
2022/11/11 09:43:36;;;;;;;2.27;2.07;;;1.90;99.90;;;;;;5121987;28;20269;-89
2022/11/11 09:46:28;;;;;;;2.00;1.80;;;1.90;99.90;;;;;;5125211;28;20200;-88
2022/11/11 09:49:34;;;;;;;1.97;1.70;;;1.80;99.90;;;;;;5100661;28;20226;-88
2022/11/11 09:52:15;;;;;;;3.17;1.93;;;1.90;99.90;;;;;;5104612;28;20204;-88
2022/11/11 09:54:53;;;;;;;2.43;2.03;;;1.80;99.90;;;;;;5117412;28;20230;-87
2022/11/11 09:57:35;;;;;;;2.50;2.03;;;1.80;99.90;;;;;;5115461;28;20654;-87
2022/11/11 10:00:16;;;;;;;3.53;2.27;;;1.80;99.90;;;;;;5115279;28;20263;-88
2022/11/11 10:02:55;;;;;;;3.43;2.10;;;1.80;99.90;;;;;;5107113;28;20248;-88
2022/11/11 10:05:31;;;;;;;4.43;2.23;;;1.80;99.90;;;;;;5112011;28;20224;-87
2022/11/11 10:08:10;;;;;;;3.10;2.17;;;1.80;99.90;;;;;;5097882;28;20245;-87
2022/11/11 10:10:46;;;;;;;2.40;2.20;;;1.80;99.90;;;;;;5107843;28;20207;-88
2022/11/11 10:13:21;;;;;;;3.93;2.20;;;1.80;99.90;;;;;;5105449;28;20205;-87
2022/11/11 10:16:01;;;;;;;2.57;2.10;;;1.80;99.90;;;;;;5099164;28;20217;-87
2022/11/11 10:18:51;;;;;;;2.90;2.20;;;1.80;99.90;;;;;;5094729;28;20289;-87
2022/11/11 10:21:28;;;;;;;2.50;2.20;;;1.80;99.90;;;;;;5094703;28;20281;-88
2022/11/11 10:24:26;;;;;;;2.20;1.73;;;1.80;99.90;;;;;;5107560;28;20690;-88
2022/11/11 10:27:02;;;;;;;3.23;2.03;;;1.90;99.90;;;;;;5097982;28;20293;-88
2022/11/11 10:29:43;;;;;;;2.97;1.93;;;1.90;99.90;;;;;;5094591;28;20293;-88
2022/11/11 10:32:20;;;;;;;3.07;2.13;;;1.90;99.90;;;;;;5093051;28;20411;-88
2022/11/11 10:34:51;;;;;;;2.33;1.90;;;1.90;99.90;;;;;;5097139;28;20801;-87
2022/11/11 10:37:25;;;;;;;3.10;2.20;;;1.90;99.90;;;;;;5105217;28;20206;-88
2022/11/11 10:40:06;;;;;;;2.13;1.93;;;1.90;99.90;;;;;;5093600;28;20209;-88
2022/11/11 10:42:39;;;;;;;2.67;2.17;;;2.00;99.90;;;;;;5094561;28;20636;-88
2022/11/11 10:45:22;;;;;;;3.87;2.10;;;2.00;99.90;;;;;;5113111;28;20229;-87
2022/11/11 10:47:59;;;;;;;3.50;2.80;;;2.00;99.90;;;;;;5091182;28;20206;-87
2022/11/11 10:50:37;;;;;;;3.23;2.10;;;2.00;99.90;;;;;;5094676;28;20205;-88
2022/11/11 10:53:18;;;;;;;2.53;1.93;;;2.00;99.90;;;;;;5107003;28;20780;-88
2022/11/11 10:55:53;;;;;;;2.43;1.97;;;2.00;99.90;;;;;;5101663;28;20225;-87
2022/11/11 10:58:34;;;;;;;2.20;1.90;;;2.00;99.90;;;;;;5118509;28;20309;-88
2022/11/11 11:01:09;;;;;;;4.17;2.13;;;2.00;99.90;;;;;;5114562;28;20210;-88
2022/11/11 11:03:44;;;;;;;3.50;2.50;;;2.00;99.90;;;;;;5093708;28;20222;-88
2022/11/11 11:06:21;;;;;;;2.63;1.97;;;2.00;99.90;;;;;;5096631;28;20298;-88
2022/11/11 11:09:07;;;;;;;4.23;2.50;;;1.90;99.90;;;;;;5077540;28;20266;-88
2022/11/11 11:11:44;;;;;;;5.27;2.27;;;1.90;99.90;;;;;;5094072;28;20238;-88
2022/11/11 11:14:22;;;;;;;3.23;2.20;;;2.00;99.90;;;;;;5111001;28;20722;-87
2022/11/11 11:16:57;;;;;;;3.47;2.20;;;2.00;99.90;;;;;;5108417;28;20203;-88
2022/11/11 11:19:28;;;;;;;3.73;2.17;;;2.00;99.90;;;;;;5117635;28;20695;-89
2022/11/11 11:22:01;;;;;;;3.20;2.13;;;2.00;99.90;;;;;;5110909;28;20241;-88
2022/11/11 11:24:34;;;;;;;2.40;2.10;;;2.00;99.90;;;;;;5106609;28;20254;-88
2022/11/11 11:27:13;;;;;;;2.60;2.10;;;2.10;99.90;;;;;;5085944;28;20211;-88
2022/11/11 11:29:49;;;;;;;2.63;1.80;;;2.10;99.90;;;;;;5097766;28;20249;-88
2022/11/11 11:32:22;;;;;;;4.40;2.50;;;2.10;99.90;;;;;;5096773;28;20298;-87
2022/11/11 11:34:56;;;;;;;2.70;1.80;;;2.10;99.90;;;;;;5096986;28;20257;-88
2022/11/11 11:37:30;;;;;;;3.70;2.13;;;2.10;99.90;;;;;;5085754;28;20236;-88
2022/11/11 11:40:04;;;;;;;2.10;1.80;;;2.10;99.90;;;;;;5098624;28;20215;-87
2022/11/11 11:42:37;;;;;;;5.03;2.17;;;2.10;99.90;;;;;;5111516;28;20237;-87
2022/11/11 11:45:22;;;;;;;4.13;2.00;;;2.10;99.90;;;;;;5097437;28;20281;-88
2022/11/11 11:48:08;;;;;;;2.43;1.90;;;2.10;99.90;;;;;;5117200;28;20240;-89
2022/11/11 11:51:10;;;;;;;2.43;1.90;;;2.10;99.90;;;;;;5079104;28;20225;-87
2022/11/11 11:53:51;;;;;;;2.47;2.00;;;2.10;99.90;;;;;;5100455;28;20605;-87
2022/11/11 11:56:34;;;;;;;2.10;1.90;;;2.10;99.90;;;;;;5110190;28;20289;-88
2022/11/11 11:59:13;;;;;;;2.57;2.00;;;2.10;99.90;;;;;;5103143;28;20311;-90
2022/11/11 12:01:58;;;;;;;2.83;2.07;;;2.10;99.90;;;;;;5098216;28;20234;-87
2022/11/11 12:04:47;;;;;;;2.57;1.73;;;2.20;99.90;;;;;;5098595;28;20258;-87
2022/11/11 12:07:33;;;;;;;3.30;2.10;;;2.10;99.90;;;;;;5080633;28;20286;-88
2022/11/11 12:10:16;;;;;;;2.43;2.03;;;2.10;99.90;;;;;;5107392;28;20500;-87
2022/11/11 12:12:59;;;;;;;2.57;1.77;;;2.10;99.90;;;;;;5112021;28;20202;-87
2022/11/11 12:15:38;;;;;;;2.80;1.83;;;2.10;99.90;;;;;;5115594;28;20232;-87
2022/11/11 12:18:30;;;;;;;4.43;2.10;;;2.10;99.90;;;;;;5102458;28;20202;-87
2022/11/11 12:21:08;;;;;;;1.97;1.80;;;2.10;99.90;;;;;;5090474;28;20202;-87
2022/11/11 12:23:58;;;;;;;2.40;1.73;;;2.20;99.90;;;;;;5106126;28;20642;-86
2022/11/11 12:26:39;;;;;;;2.83;1.73;;;2.10;99.90;;;;;;5105936;28;20209;-87
2022/11/11 12:29:25;;;;;;;2.67;2.00;;;2.10;99.90;;;;;;5100272;28;20807;-88
2022/11/11 12:32:08;;;;;;;3.17;1.97;;;2.10;99.90;;;;;;5095332;28;20195;-88
2022/11/11 12:35:08;;;;;;;2.87;2.30;;;2.10;99.90;;;;;;5102653;28;20294;-88
2022/11/11 12:37:50;;;;;;;2.17;1.73;;;2.20;99.90;;;;;;5095517;28;20195;-85
2022/11/11 12:40:35;;;;;;;2.03;1.80;;;2.20;99.90;;;;;;5104399;28;20207;-87
2022/11/11 12:43:19;;;;;;;2.87;2.03;;;2.20;99.90;;;;;;5104595;28;20710;-86
2022/11/11 12:45:59;;;;;;;3.10;2.07;;;2.30;99.90;;;;;;5105672;28;20292;-88
2022/11/11 12:48:41;;;;;;;2.17;1.87;;;2.30;99.90;;;;;;5110303;28;20224;-87
2022/11/11 12:51:29;;;;;;;2.90;2.20;;;2.30;99.90;;;;;;5103380;28;20259;-87
2022/11/11 12:54:07;;;;;;;2.37;2.10;;;2.30;99.90;;;;;;5111417;28;20233;-88
2022/11/11 12:56:49;;;;;;;3.13;2.40;;;2.30;99.90;;;;;;5116694;28;20277;-87
2022/11/11 12:59:35;;;;;;;5.80;2.40;;;2.30;99.90;;;;;;5106434;28;20206;-87
2022/11/11 13:02:22;;;;;;;3.97;2.00;;;2.40;99.90;;;;;;5127822;28;20186;-90
2022/11/11 13:05:03;;;;;;;4.30;2.13;;;2.40;99.90;;;;;;5131327;28;20227;-88
2022/11/11 13:07:57;;;;;;;2.30;2.10;;;2.40;99.90;;;;;;5116961;28;20633;-87
2022/11/11 13:10:39;;;;;;;2.53;2.20;;;2.40;99.90;;;;;;5106737;28;20290;-88
2022/11/11 13:13:29;;;;;;;3.33;2.43;;;2.40;99.90;;;;;;5107676;28;20203;-88
2022/11/11 13:16:01;;;;;;;2.50;2.30;;;2.40;99.90;;;;;;5095752;28;20248;-88
2022/11/11 13:18:44;;;;;;;3.60;2.40;;;2.40;99.90;;;;;;5101727;28;20277;-87
2022/11/11 13:21:20;;;;;;;2.20;2.00;;;2.50;99.90;;;;;;5109647;28;20802;-88
2022/11/11 13:23:53;;;;;;;2.90;2.60;;;2.50;99.90;;;;;;5096571;28;20210;-88
2022/11/11 13:26:34;;;;;;;2.73;2.17;;;2.60;99.90;;;;;;5104938;28;20264;-88
2022/11/11 13:29:38;;;;;;;3.27;2.10;;;2.60;99.90;;;;;;5111329;28;20222;-87
2022/11/11 13:32:15;;;;;;;3.77;2.33;;;2.60;99.90;;;;;;5071792;28;20214;-88
2022/11/11 13:34:48;;;;;;;3.07;2.10;;;2.70;99.90;;;;;;5095083;28;20237;-86
2022/11/11 13:37:27;;;;;;;3.93;2.30;;;2.70;99.90;;;;;;5104981;28;20209;-87
2022/11/11 13:40:05;;;;;;;2.30;1.93;;;2.80;99.90;;;;;;5098965;28;20207;-86
2022/11/11 13:42:41;;;;;;;3.80;2.00;;;2.80;99.90;;;;;;5093977;28;20207;-87
2022/11/11 13:45:27;;;;;;;3.03;1.97;;;2.80;99.90;;;;;;5094840;28;20316;-87
2022/11/11 13:48:00;;;;;;;5.50;2.40;;;2.90;99.90;;;;;;5097889;28;20234;-87
2022/11/11 13:50:38;;;;;;;3.97;2.17;;;2.90;99.90;;;;;;5108715;28;20204;-87
2022/11/11 13:53:17;;;;;;;3.27;2.23;;;3.00;99.90;;;;;;5101470;28;20233;-88
2022/11/11 13:55:51;;;;;;;2.80;2.00;;;3.10;99.90;;;;;;5094861;28;20206;-88
2022/11/11 13:58:28;;;;;;;2.27;2.07;;;3.10;99.90;;;;;;5094306;28;20210;-87
2022/11/11 14:01:01;;;;;;;3.00;1.87;;;3.10;99.90;;;;;;5094424;28;20289;-88
2022/11/11 14:03:36;;;;;;;2.23;1.90;;;3.20;99.90;;;;;;5093739;28;20207;-87
2022/11/11 14:06:55;;;;;;;3.37;2.30;;;3.30;99.90;;;;;;5105612;28;20349;-88
2022/11/11 14:09:55;;;;;;;2.97;1.77;;;3.30;99.90;;;;;;5040704;28;20215;-88
2022/11/11 14:12:43;;;;;;;2.53;2.23;;;3.40;99.90;;;;;;5044888;28;20204;-87
2022/11/11 14:15:40;;;;;;;3.80;2.10;;;3.50;99.90;;;;;;5095262;28;20211;-87
2022/11/11 14:18:33;;;;;;;2.87;1.90;;;3.50;99.90;;;;;;5094986;28;20870;-87
2022/11/11 14:21:04;;;;;;;4.93;2.47;;;3.50;99.90;;;;;;5109908;28;20309;-87
2022/11/11 14:23:37;;;;;;;4.60;2.37;;;3.50;99.90;;;;;;5093178;28;20210;-87
2022/11/11 14:26:27;;;;;;;5.30;2.17;;;3.40;99.90;;;;;;5101536;28;20333;-87
2022/11/11 14:29:02;;;;;;;3.13;2.20;;;3.40;99.90;;;;;;5094214;28;20242;-87
2022/11/11 14:32:16;;;;;;;2.30;1.70;;;3.40;99.90;;;;;;5094125;28;20270;-86
2022/11/11 14:35:14;;;;;;;2.83;1.97;;;3.40;99.90;;;;;;5034263;28;20211;-87
2022/11/11 14:38:03;;;;;;;2.53;2.10;;;3.40;99.90;;;;;;5035584;28;20213;-87
2022/11/11 14:40:35;;;;;;;1.70;1.47;;;3.30;99.90;;;;;;5084894;28;20238;-87
2022/11/11 14:43:38;;;;;;;2.03;1.83;;;3.30;99.90;;;;;;5107398;28;20209;-88
2022/11/11 14:46:13;;;;;;;2.03;1.40;;;3.30;99.90;;;;;;5104153;28;20225;-87
2022/11/11 14:48:58;;;;;;;2.20;1.30;;;3.30;99.90;;;;;;5114853;28;20247;-87
2022/11/11 14:51:54;;;;;;;2.27;1.57;;;3.30;99.90;;;;;;5097290;28;20222;-87
2022/11/11 14:54:48;;;;;;;2.30;1.30;;;3.40;99.90;;;;;;5101516;28;20758;-87